Locust, NC (28097)

5:51 PM EST on February 07, 2016 (GMT -0500)
APRSWXNET | | Change Station
CLOSE
Current Station
Personal Weather Station
Location: Stanfield, NC
Elevation: 705 ft
Nearby Weather Stations

Elev 705 ft 35.26 °N, 80.38 °W | Updated 22 minutes ago

Clear
Clear
45 °F
Feels Like 39 °F
N
11
Wind Variable Wind from North
Gusts 15.0 mph

Today
High -- | Low -- °F
--% Chance of Precip.
Yesterday
High -- | Low -- °F
Precip. -- in
Pressure 29.96 in
Visibility 10.0 miles
Clouds Clear
Windchill 39 °F
Dew Point 23 °F
Humidity 42%
Rainfall in
Snow Depth Not available.
7:16 AM 5:55 PM
Waning Crescent, 1% visible
METAR KJQF 072150Z 01009KT 10SM CLR 09/M06 A2996
Pressure 29.96 in
Visibility 10.0 miles
Clouds Clear
Windchill 39 °F
Dew Point 23 °F
Humidity 42%
Rainfall in
Snow Depth Not available.
7:16 AM 5:55 PM
Waning Crescent, 1% visible
METAR KJQF 072150Z 01009KT 10SM CLR 09/M06 A2996

10-Day Weather Forecast

Almanac

Astronomy

Feb. 07, 2016 Rise Set
Actual Time
Civil Twilight
Nautical Twilight
Astronomical Twilight
Moon
Length of Visible Light
Length of Day
Tomorrow will be .
, % of the Moon is Illuminated

Today's Extremes

State Highs State Lows

Community

WunderPhotos

Upload Photos

1,891,323 photos uploaded!

WunderBlog® & News

Nearby

Air Quality

  Air Quality AQ Index Pollutant
Not available.

Snow Depth

Station Depth Elevation

Earthquake Activity

City Distance Mag. Time & Date
Minimum magnitude displayed is 2.5.

Coastal Water Temperatures

Place Temperature

Stations

Nearby Weather Stations

Station Location Temp. Windchill Dew Point Humidity Wind Precip. Elev Updated Type
                   

Watches & Warnings

There are currently no watches in effect.